sensor_id;sensor_type;location;lat;lon;timestamp;P1;durP1;ratioP1;P2;durP2;ratioP2
7783;SDS011;19359;51.402;6.778;2022-11-15T00:00:06;7.15;;;6.50;;
7783;SDS011;19359;51.402;6.778;2022-11-15T00:02:34;5.97;;;5.55;;
7783;SDS011;19359;51.402;6.778;2022-11-15T00:05:04;7.70;;;5.30;;
7783;SDS011;19359;51.402;6.778;2022-11-15T00:07:31;6.93;;;6.22;;
7783;SDS011;19359;51.402;6.778;2022-11-15T00:09:57;8.10;;;6.82;;
7783;SDS011;19359;51.402;6.778;2022-11-15T00:12:24;5.95;;;5.35;;
7783;SDS011;19359;51.402;6.778;2022-11-15T00:14:52;8.98;;;6.20;;
7783;SDS011;19359;51.402;6.778;2022-11-15T00:17:20;6.72;;;5.63;;
7783;SDS011;19359;51.402;6.778;2022-11-15T00:19:47;6.20;;;5.63;;
7783;SDS011;19359;51.402;6.778;2022-11-15T00:22:15;8.07;;;5.57;;
7783;SDS011;19359;51.402;6.778;2022-11-15T00:24:42;12.55;;;5.90;;
7783;SDS011;19359;51.402;6.778;2022-11-15T00:27:09;6.78;;;5.82;;
7783;SDS011;19359;51.402;6.778;2022-11-15T00:29:35;8.48;;;5.53;;
7783;SDS011;19359;51.402;6.778;2022-11-15T00:32:03;8.23;;;5.80;;
7783;SDS011;19359;51.402;6.778;2022-11-15T00:34:30;5.85;;;5.38;;
7783;SDS011;19359;51.402;6.778;2022-11-15T00:36:57;10.10;;;5.53;;
7783;SDS011;19359;51.402;6.778;2022-11-15T00:39:25;7.07;;;6.00;;
7783;SDS011;19359;51.402;6.778;2022-11-15T00:41:51;6.70;;;6.03;;
7783;SDS011;19359;51.402;6.778;2022-11-15T00:44:18;5.93;;;5.35;;
7783;SDS011;19359;51.402;6.778;2022-11-15T00:46:45;6.18;;;5.57;;
7783;SDS011;19359;51.402;6.778;2022-11-15T00:49:12;6.20;;;5.60;;
7783;SDS011;19359;51.402;6.778;2022-11-15T00:51:39;7.03;;;6.35;;
7783;SDS011;19359;51.402;6.778;2022-11-15T00:54:06;9.98;;;5.50;;
7783;SDS011;19359;51.402;6.778;2022-11-15T00:56:34;10.80;;;5.95;;
7783;SDS011;19359;51.402;6.778;2022-11-15T00:59:01;6.07;;;5.57;;
7783;SDS011;19359;51.402;6.778;2022-11-15T01:01:27;9.18;;;5.78;;
7783;SDS011;19359;51.402;6.778;2022-11-15T01:03:54;7.05;;;5.47;;
7783;SDS011;19359;51.402;6.778;2022-11-15T01:06:21;9.68;;;6.28;;
7783;SDS011;19359;51.402;6.778;2022-11-15T01:08:48;7.80;;;5.70;;
7783;SDS011;19359;51.402;6.778;2022-11-15T01:11:15;7.10;;;5.60;;
7783;SDS011;19359;51.402;6.778;2022-11-15T01:13:43;6.13;;;5.53;;
7783;SDS011;19359;51.402;6.778;2022-11-15T01:16:10;7.68;;;5.43;;
7783;SDS011;19359;51.402;6.778;2022-11-15T01:18:39;7.63;;;5.85;;
7783;SDS011;19359;51.402;6.778;2022-11-15T01:21:07;10.15;;;5.05;;
7783;SDS011;19359;51.402;6.778;2022-11-15T01:23:34;6.97;;;5.40;;
7783;SDS011;19359;51.402;6.778;2022-11-15T01:26:02;8.10;;;6.20;;
7783;SDS011;19359;51.402;6.778;2022-11-15T01:28:30;7.30;;;4.75;;
7783;SDS011;19359;51.402;6.778;2022-11-15T01:30:59;6.45;;;5.60;;
7783;SDS011;19359;51.402;6.778;2022-11-15T01:33:27;5.60;;;5.05;;
7783;SDS011;19359;51.402;6.778;2022-11-15T01:35:56;6.20;;;5.60;;
7783;SDS011;19359;51.402;6.778;2022-11-15T01:38:22;7.35;;;5.13;;
7783;SDS011;19359;51.402;6.778;2022-11-15T01:40:49;6.85;;;4.55;;
7783;SDS011;19359;51.402;6.778;2022-11-15T01:43:20;7.93;;;4.50;;
7783;SDS011;19359;51.402;6.778;2022-11-15T01:45:50;6.72;;;5.07;;
7783;SDS011;19359;51.402;6.778;2022-11-15T01:48:21;9.77;;;5.30;;
7783;SDS011;19359;51.402;6.778;2022-11-15T01:50:51;5.40;;;4.53;;
7783;SDS011;19359;51.402;6.778;2022-11-15T01:53:19;6.15;;;4.53;;
7783;SDS011;19359;51.402;6.778;2022-11-15T01:55:49;6.38;;;5.40;;
7783;SDS011;19359;51.402;6.778;2022-11-15T01:58:16;5.80;;;5.22;;
7783;SDS011;19359;51.402;6.778;2022-11-15T02:00:43;8.73;;;5.07;;
7783;SDS011;19359;51.402;6.778;2022-11-15T02:03:10;4.85;;;4.15;;
7783;SDS011;19359;51.402;6.778;2022-11-15T02:05:38;5.65;;;5.13;;
7783;SDS011;19359;51.402;6.778;2022-11-15T02:08:05;5.22;;;4.82;;
7783;SDS011;19359;51.402;6.778;2022-11-15T02:10:44;6.43;;;4.00;;
7783;SDS011;19359;51.402;6.778;2022-11-15T02:13:11;7.20;;;4.55;;
7783;SDS011;19359;51.402;6.778;2022-11-15T02:15:40;5.38;;;4.43;;
7783;SDS011;19359;51.402;6.778;2022-11-15T02:18:16;6.03;;;4.68;;
7783;SDS011;19359;51.402;6.778;2022-11-15T02:20:54;5.40;;;4.90;;
7783;SDS011;19359;51.402;6.778;2022-11-15T02:23:31;4.70;;;4.30;;
7783;SDS011;19359;51.402;6.778;2022-11-15T02:29:45;5.35;;;4.57;;
7783;SDS011;19359;51.402;6.778;2022-11-15T02:32:28;5.50;;;4.93;;
7783;SDS011;19359;51.402;6.778;2022-11-15T02:35:01;6.07;;;4.65;;
7783;SDS011;19359;51.402;6.778;2022-11-15T02:37:38;6.18;;;4.68;;
7783;SDS011;19359;51.402;6.778;2022-11-15T02:40:12;5.75;;;4.50;;
7783;SDS011;19359;51.402;6.778;2022-11-15T02:42:48;10.00;;;5.18;;
7783;SDS011;19359;51.402;6.778;2022-11-15T02:45:38;5.88;;;4.80;;
7783;SDS011;19359;51.402;6.778;2022-11-15T02:48:09;7.80;;;4.70;;
7783;SDS011;19359;51.402;6.778;2022-11-15T02:50:37;6.82;;;4.35;;
7783;SDS011;19359;51.402;6.778;2022-11-15T02:53:04;5.63;;;5.10;;
7783;SDS011;19359;51.402;6.778;2022-11-15T02:55:33;6.25;;;5.55;;
7783;SDS011;19359;51.402;6.778;2022-11-15T02:58:07;7.60;;;5.22;;
7783;SDS011;19359;51.402;6.778;2022-11-15T03:00:55;7.20;;;5.07;;
7783;SDS011;19359;51.402;6.778;2022-11-15T03:03:30;8.43;;;5.00;;
7783;SDS011;19359;51.402;6.778;2022-11-15T03:06:11;8.23;;;4.97;;
7783;SDS011;19359;51.402;6.778;2022-11-15T03:08:48;5.25;;;4.57;;
7783;SDS011;19359;51.402;6.778;2022-11-15T03:11:23;4.47;;;4.07;;
7783;SDS011;19359;51.402;6.778;2022-11-15T03:13:52;5.55;;;5.00;;
7783;SDS011;19359;51.402;6.778;2022-11-15T03:16:24;6.20;;;4.88;;
7783;SDS011;19359;51.402;6.778;2022-11-15T03:18:56;6.25;;;4.50;;
7783;SDS011;19359;51.402;6.778;2022-11-15T03:21:25;6.60;;;5.10;;
7783;SDS011;19359;51.402;6.778;2022-11-15T03:23:55;5.70;;;4.72;;
7783;SDS011;19359;51.402;6.778;2022-11-15T03:26:26;9.07;;;5.50;;
7783;SDS011;19359;51.402;6.778;2022-11-15T03:28:56;9.05;;;5.05;;
7783;SDS011;19359;51.402;6.778;2022-11-15T03:31:31;6.45;;;5.40;;
7783;SDS011;19359;51.402;6.778;2022-11-15T03:34:14;7.85;;;5.20;;
7783;SDS011;19359;51.402;6.778;2022-11-15T03:36:46;6.40;;;5.47;;
7783;SDS011;19359;51.402;6.778;2022-11-15T03:39:15;9.20;;;4.35;;
7783;SDS011;19359;51.402;6.778;2022-11-15T03:41:42;6.60;;;4.85;;
7783;SDS011;19359;51.402;6.778;2022-11-15T03:44:15;7.15;;;4.60;;
7783;SDS011;19359;51.402;6.778;2022-11-15T03:46:49;10.20;;;5.60;;
7783;SDS011;19359;51.402;6.778;2022-11-15T03:49:25;5.25;;;4.75;;
7783;SDS011;19359;51.402;6.778;2022-11-15T03:51:56;6.05;;;5.18;;
7783;SDS011;19359;51.402;6.778;2022-11-15T03:54:24;5.15;;;4.28;;
7783;SDS011;19359;51.402;6.778;2022-11-15T03:56:50;6.82;;;4.85;;
7783;SDS011;19359;51.402;6.778;2022-11-15T03:59:17;6.03;;;4.95;;
7783;SDS011;19359;51.402;6.778;2022-11-15T04:01:44;6.18;;;4.82;;
7783;SDS011;19359;51.402;6.778;2022-11-15T04:04:11;9.95;;;4.18;;
7783;SDS011;19359;51.402;6.778;2022-11-15T04:06:39;7.80;;;4.43;;
7783;SDS011;19359;51.402;6.778;2022-11-15T04:09:05;6.00;;;4.88;;
7783;SDS011;19359;51.402;6.778;2022-11-15T04:11:32;4.57;;;4.20;;
7783;SDS011;19359;51.402;6.778;2022-11-15T04:13:59;7.10;;;4.78;;
7783;SDS011;19359;51.402;6.778;2022-11-15T04:16:25;5.50;;;4.95;;
7783;SDS011;19359;51.402;6.778;2022-11-15T04:18:52;7.03;;;4.32;;
7783;SDS011;19359;51.402;6.778;2022-11-15T04:21:33;6.10;;;4.13;;
7783;SDS011;19359;51.402;6.778;2022-11-15T04:24:18;5.50;;;4.13;;
7783;SDS011;19359;51.402;6.778;2022-11-15T04:26:45;4.30;;;3.97;;
7783;SDS011;19359;51.402;6.778;2022-11-15T04:29:12;4.88;;;4.15;;
7783;SDS011;19359;51.402;6.778;2022-11-15T04:31:56;4.40;;;4.00;;
7783;SDS011;19359;51.402;6.778;2022-11-15T04:34:23;4.65;;;3.55;;
7783;SDS011;19359;51.402;6.778;2022-11-15T04:36:49;4.05;;;3.78;;
7783;SDS011;19359;51.402;6.778;2022-11-15T04:39:37;4.15;;;3.92;;
7783;SDS011;19359;51.402;6.778;2022-11-15T04:42:04;3.92;;;3.70;;
7783;SDS011;19359;51.402;6.778;2022-11-15T04:44:31;4.78;;;4.38;;
7783;SDS011;19359;51.402;6.778;2022-11-15T04:46:57;5.32;;;3.97;;
7783;SDS011;19359;51.402;6.778;2022-11-15T04:49:24;4.85;;;3.83;;
7783;SDS011;19359;51.402;6.778;2022-11-15T04:51:51;4.22;;;3.85;;
7783;SDS011;19359;51.402;6.778;2022-11-15T04:54:17;3.80;;;3.50;;
7783;SDS011;19359;51.402;6.778;2022-11-15T04:56:46;3.67;;;3.50;;
7783;SDS011;19359;51.402;6.778;2022-11-15T04:59:12;4.72;;;3.40;;
7783;SDS011;19359;51.402;6.778;2022-11-15T05:01:39;5.47;;;3.88;;
7783;SDS011;19359;51.402;6.778;2022-11-15T05:04:06;3.95;;;3.28;;
7783;SDS011;19359;51.402;6.778;2022-11-15T05:06:44;4.20;;;3.85;;
7783;SDS011;19359;51.402;6.778;2022-11-15T05:09:11;3.30;;;3.10;;
7783;SDS011;19359;51.402;6.778;2022-11-15T05:11:39;3.30;;;3.13;;
7783;SDS011;19359;51.402;6.778;2022-11-15T05:14:07;6.18;;;3.35;;
7783;SDS011;19359;51.402;6.778;2022-11-15T05:16:34;5.97;;;3.42;;
7783;SDS011;19359;51.402;6.778;2022-11-15T05:19:01;3.90;;;2.97;;
7783;SDS011;19359;51.402;6.778;2022-11-15T05:21:28;3.10;;;2.88;;
7783;SDS011;19359;51.402;6.778;2022-11-15T05:23:55;3.53;;;3.22;;
7783;SDS011;19359;51.402;6.778;2022-11-15T05:26:21;3.67;;;3.38;;
7783;SDS011;19359;51.402;6.778;2022-11-15T05:28:51;3.75;;;3.08;;
7783;SDS011;19359;51.402;6.778;2022-11-15T05:31:22;4.30;;;4.00;;
7783;SDS011;19359;51.402;6.778;2022-11-15T05:33:49;4.18;;;3.88;;
7783;SDS011;19359;51.402;6.778;2022-11-15T05:36:18;2.92;;;2.75;;
7783;SDS011;19359;51.402;6.778;2022-11-15T05:38:51;5.75;;;3.70;;
7783;SDS011;19359;51.402;6.778;2022-11-15T05:41:18;4.35;;;3.95;;
7783;SDS011;19359;51.402;6.778;2022-11-15T05:43:48;3.17;;;2.97;;
7783;SDS011;19359;51.402;6.778;2022-11-15T05:46:16;4.00;;;3.70;;
7783;SDS011;19359;51.402;6.778;2022-11-15T05:48:45;4.65;;;3.90;;
7783;SDS011;19359;51.402;6.778;2022-11-15T05:51:16;3.85;;;3.55;;
7783;SDS011;19359;51.402;6.778;2022-11-15T05:53:44;4.30;;;3.85;;
7783;SDS011;19359;51.402;6.778;2022-11-15T05:56:11;4.40;;;4.05;;
7783;SDS011;19359;51.402;6.778;2022-11-15T05:58:38;4.68;;;4.20;;
7783;SDS011;19359;51.402;6.778;2022-11-15T06:01:05;4.75;;;4.45;;
7783;SDS011;19359;51.402;6.778;2022-11-15T06:03:32;5.47;;;5.03;;
7783;SDS011;19359;51.402;6.778;2022-11-15T06:06:00;5.10;;;4.70;;
7783;SDS011;19359;51.402;6.778;2022-11-15T06:08:28;4.30;;;4.00;;
7783;SDS011;19359;51.402;6.778;2022-11-15T06:10:54;7.45;;;4.43;;
7783;SDS011;19359;51.402;6.778;2022-11-15T06:13:21;3.80;;;3.50;;
7783;SDS011;19359;51.402;6.778;2022-11-15T06:15:48;4.93;;;4.43;;
7783;SDS011;19359;51.402;6.778;2022-11-15T06:18:14;4.60;;;4.15;;
7783;SDS011;19359;51.402;6.778;2022-11-15T06:20:41;5.15;;;4.75;;
7783;SDS011;19359;51.402;6.778;2022-11-15T06:23:09;4.80;;;4.00;;
7783;SDS011;19359;51.402;6.778;2022-11-15T06:25:36;5.47;;;4.32;;
7783;SDS011;19359;51.402;6.778;2022-11-15T06:28:03;4.72;;;4.30;;
7783;SDS011;19359;51.402;6.778;2022-11-15T06:30:29;4.45;;;4.15;;
7783;SDS011;19359;51.402;6.778;2022-11-15T06:33:00;4.10;;;3.83;;
7783;SDS011;19359;51.402;6.778;2022-11-15T06:35:27;4.70;;;4.35;;
7783;SDS011;19359;51.402;6.778;2022-11-15T06:37:54;4.50;;;4.05;;
7783;SDS011;19359;51.402;6.778;2022-11-15T06:40:23;4.05;;;3.72;;
7783;SDS011;19359;51.402;6.778;2022-11-15T06:42:49;3.67;;;3.30;;
7783;SDS011;19359;51.402;6.778;2022-11-15T06:45:16;3.67;;;3.38;;
7783;SDS011;19359;51.402;6.778;2022-11-15T06:47:46;3.63;;;3.47;;
7783;SDS011;19359;51.402;6.778;2022-11-15T06:50:13;7.75;;;3.45;;
7783;SDS011;19359;51.402;6.778;2022-11-15T06:52:40;3.88;;;3.58;;
7783;SDS011;19359;51.402;6.778;2022-11-15T06:55:07;4.50;;;4.20;;
7783;SDS011;19359;51.402;6.778;2022-11-15T06:57:36;3.25;;;3.15;;
7783;SDS011;19359;51.402;6.778;2022-11-15T07:00:04;3.13;;;2.97;;
7783;SDS011;19359;51.402;6.778;2022-11-15T07:02:32;4.15;;;3.72;;
7783;SDS011;19359;51.402;6.778;2022-11-15T07:04:58;4.40;;;4.05;;
7783;SDS011;19359;51.402;6.778;2022-11-15T07:07:25;3.90;;;3.70;;
7783;SDS011;19359;51.402;6.778;2022-11-15T07:09:52;4.25;;;3.63;;
7783;SDS011;19359;51.402;6.778;2022-11-15T07:12:18;3.85;;;3.40;;
7783;SDS011;19359;51.402;6.778;2022-11-15T07:14:47;3.92;;;3.63;;
7783;SDS011;19359;51.402;6.778;2022-11-15T07:17:14;4.47;;;3.08;;
7783;SDS011;19359;51.402;6.778;2022-11-15T07:19:41;3.17;;;2.88;;
7783;SDS011;19359;51.402;6.778;2022-11-15T07:22:08;3.88;;;3.65;;
7783;SDS011;19359;51.402;6.778;2022-11-15T07:24:34;2.60;;;2.50;;
7783;SDS011;19359;51.402;6.778;2022-11-15T07:27:01;2.72;;;2.63;;
7783;SDS011;19359;51.402;6.778;2022-11-15T07:29:28;3.03;;;2.83;;
7783;SDS011;19359;51.402;6.778;2022-11-15T07:31:57;2.95;;;2.55;;
7783;SDS011;19359;51.402;6.778;2022-11-15T07:34:24;2.88;;;2.67;;
7783;SDS011;19359;51.402;6.778;2022-11-15T07:36:50;2.70;;;2.55;;
7783;SDS011;19359;51.402;6.778;2022-11-15T07:39:17;3.63;;;2.90;;
7783;SDS011;19359;51.402;6.778;2022-11-15T07:41:44;2.55;;;2.45;;
7783;SDS011;19359;51.402;6.778;2022-11-15T07:44:13;2.30;;;2.20;;
7783;SDS011;19359;51.402;6.778;2022-11-15T07:46:39;2.50;;;2.30;;
7783;SDS011;19359;51.402;6.778;2022-11-15T07:49:07;1.95;;;1.90;;
7783;SDS011;19359;51.402;6.778;2022-11-15T07:51:34;2.17;;;2.08;;
7783;SDS011;19359;51.402;6.778;2022-11-15T07:54:01;3.28;;;1.92;;
7783;SDS011;19359;51.402;6.778;2022-11-15T07:56:27;2.75;;;2.55;;
7783;SDS011;19359;51.402;6.778;2022-11-15T07:58:54;0.90;;;0.90;;
7783;SDS011;19359;51.402;6.778;2022-11-15T08:01:22;2.13;;;0.73;;
7783;SDS011;19359;51.402;6.778;2022-11-15T08:03:49;0.40;;;0.40;;
7783;SDS011;19359;51.402;6.778;2022-11-15T08:06:17;3.53;;;0.73;;
7783;SDS011;19359;51.402;6.778;2022-11-15T08:08:43;0.60;;;0.60;;
7783;SDS011;19359;51.402;6.778;2022-11-15T08:11:12;2.10;;;0.47;;
7783;SDS011;19359;51.402;6.778;2022-11-15T08:13:39;8.85;;;0.70;;
7783;SDS011;19359;51.402;6.778;2022-11-15T08:16:06;0.45;;;0.40;;
7783;SDS011;19359;51.402;6.778;2022-11-15T08:18:32;13.45;;;1.10;;
7783;SDS011;19359;51.402;6.778;2022-11-15T08:20:59;4.30;;;0.60;;
7783;SDS011;19359;51.402;6.778;2022-11-15T08:23:28;1.25;;;0.30;;
7783;SDS011;19359;51.402;6.778;2022-11-15T08:25:58;0.20;;;0.20;;
7783;SDS011;19359;51.402;6.778;2022-11-15T08:28:26;1.02;;;0.20;;
7783;SDS011;19359;51.402;6.778;2022-11-15T08:30:53;1.08;;;0.40;;
7783;SDS011;19359;51.402;6.778;2022-11-15T08:33:20;7.10;;;0.50;;
7783;SDS011;19359;51.402;6.778;2022-11-15T08:35:47;0.85;;;0.40;;
7783;SDS011;19359;51.402;6.778;2022-11-15T08:38:14;3.05;;;0.40;;
7783;SDS011;19359;51.402;6.778;2022-11-15T08:40:42;2.35;;;0.40;;
7783;SDS011;19359;51.402;6.778;2022-11-15T08:43:09;2.08;;;0.70;;
7783;SDS011;19359;51.402;6.778;2022-11-15T08:45:36;1.40;;;0.40;;
7783;SDS011;19359;51.402;6.778;2022-11-15T08:48:02;1.38;;;0.40;;
7783;SDS011;19359;51.402;6.778;2022-11-15T08:50:29;0.85;;;0.38;;
7783;SDS011;19359;51.402;6.778;2022-11-15T08:52:56;2.05;;;0.68;;
7783;SDS011;19359;51.402;6.778;2022-11-15T08:55:23;0.65;;;0.40;;
7783;SDS011;19359;51.402;6.778;2022-11-15T08:57:51;1.08;;;0.50;;
7783;SDS011;19359;51.402;6.778;2022-11-15T09:00:18;0.55;;;0.50;;
7783;SDS011;19359;51.402;6.778;2022-11-15T09:02:45;1.05;;;1.05;;
7783;SDS011;19359;51.402;6.778;2022-11-15T09:05:12;4.97;;;1.35;;
7783;SDS011;19359;51.402;6.778;2022-11-15T09:07:40;0.90;;;0.75;;
7783;SDS011;19359;51.402;6.778;2022-11-15T09:10:07;6.75;;;0.90;;
7783;SDS011;19359;51.402;6.778;2022-11-15T09:12:34;1.38;;;1.05;;
7783;SDS011;19359;51.402;6.778;2022-11-15T09:15:02;4.03;;;0.80;;
7783;SDS011;19359;51.402;6.778;2022-11-15T09:17:30;2.85;;;0.95;;
7783;SDS011;19359;51.402;6.778;2022-11-15T09:19:57;1.38;;;1.23;;
7783;SDS011;19359;51.402;6.778;2022-11-15T09:22:23;2.15;;;1.00;;
7783;SDS011;19359;51.402;6.778;2022-11-15T09:24:50;1.10;;;1.10;;
7783;SDS011;19359;51.402;6.778;2022-11-15T09:27:17;1.55;;;1.30;;
7783;SDS011;19359;51.402;6.778;2022-11-15T09:29:44;1.65;;;1.50;;
7783;SDS011;19359;51.402;6.778;2022-11-15T09:32:12;1.77;;;1.63;;
7783;SDS011;19359;51.402;6.778;2022-11-15T09:34:38;4.38;;;1.33;;
7783;SDS011;19359;51.402;6.778;2022-11-15T09:37:05;5.45;;;1.70;;
7783;SDS011;19359;51.402;6.778;2022-11-15T09:39:32;2.15;;;1.40;;
7783;SDS011;19359;51.402;6.778;2022-11-15T09:42:03;1.63;;;1.30;;
7783;SDS011;19359;51.402;6.778;2022-11-15T09:44:42;0.85;;;0.85;;
7783;SDS011;19359;51.402;6.778;2022-11-15T09:47:27;3.40;;;1.23;;
7783;SDS011;19359;51.402;6.778;2022-11-15T09:50:14;0.77;;;0.60;;
7783;SDS011;19359;51.402;6.778;2022-11-15T09:52:44;0.75;;;0.75;;
7783;SDS011;19359;51.402;6.778;2022-11-15T09:55:12;1.40;;;0.75;;
7783;SDS011;19359;51.402;6.778;2022-11-15T09:57:48;1.15;;;0.60;;
7783;SDS011;19359;51.402;6.778;2022-11-15T10:00:21;1.42;;;0.60;;
7783;SDS011;19359;51.402;6.778;2022-11-15T10:03:00;1.50;;;0.80;;
7783;SDS011;19359;51.402;6.778;2022-11-15T10:05:37;0.65;;;0.65;;
7783;SDS011;19359;51.402;6.778;2022-11-15T10:08:10;1.20;;;0.40;;
7783;SDS011;19359;51.402;6.778;2022-11-15T10:10:43;1.77;;;0.93;;
7783;SDS011;19359;51.402;6.778;2022-11-15T10:13:13;0.70;;;0.60;;
7783;SDS011;19359;51.402;6.778;2022-11-15T10:15:43;3.35;;;0.50;;
7783;SDS011;19359;51.402;6.778;2022-11-15T10:18:15;0.85;;;0.45;;
7783;SDS011;19359;51.402;6.778;2022-11-15T10:20:48;0.65;;;0.50;;
7783;SDS011;19359;51.402;6.778;2022-11-15T10:23:16;3.10;;;0.60;;
7783;SDS011;19359;51.402;6.778;2022-11-15T10:25:45;0.80;;;0.80;;
7783;SDS011;19359;51.402;6.778;2022-11-15T10:28:14;0.85;;;0.52;;
7783;SDS011;19359;51.402;6.778;2022-11-15T10:30:43;1.08;;;0.35;;
7783;SDS011;19359;51.402;6.778;2022-11-15T10:33:13;1.80;;;0.68;;
7783;SDS011;19359;51.402;6.778;2022-11-15T10:36:13;3.63;;;0.60;;
7783;SDS011;19359;51.402;6.778;2022-11-15T10:38:51;1.30;;;0.40;;
7783;SDS011;19359;51.402;6.778;2022-11-15T10:41:37;3.50;;;0.40;;
7783;SDS011;19359;51.402;6.778;2022-11-15T10:47:04;1.20;;;0.50;;
7783;SDS011;19359;51.402;6.778;2022-11-15T10:49:53;0.65;;;0.30;;
7783;SDS011;19359;51.402;6.778;2022-11-15T10:52:24;1.92;;;1.40;;
7783;SDS011;19359;51.402;6.778;2022-11-15T10:54:54;0.88;;;0.60;;
7783;SDS011;19359;51.402;6.778;2022-11-15T10:57:23;6.70;;;0.70;;
7783;SDS011;19359;51.402;6.778;2022-11-15T10:59:53;1.75;;;1.15;;
7783;SDS011;19359;51.402;6.778;2022-11-15T11:02:25;1.63;;;1.52;;
7783;SDS011;19359;51.402;6.778;2022-11-15T11:04:57;0.30;;;0.30;;
7783;SDS011;19359;51.402;6.778;2022-11-15T11:07:25;1.05;;;0.30;;
7783;SDS011;19359;51.402;6.778;2022-11-15T11:09:57;1.85;;;0.40;;
7783;SDS011;19359;51.402;6.778;2022-11-15T11:12:29;2.72;;;0.40;;
7783;SDS011;19359;51.402;6.778;2022-11-15T11:14:58;0.50;;;0.50;;
7783;SDS011;19359;51.402;6.778;2022-11-15T11:17:29;0.82;;;0.40;;
7783;SDS011;19359;51.402;6.778;2022-11-15T11:20:11;0.47;;;0.47;;
7783;SDS011;19359;51.402;6.778;2022-11-15T11:22:47;1.10;;;0.40;;
7783;SDS011;19359;51.402;6.778;2022-11-15T11:25:26;0.30;;;0.30;;
7783;SDS011;19359;51.402;6.778;2022-11-15T11:28:01;1.55;;;0.38;;
7783;SDS011;19359;51.402;6.778;2022-11-15T11:30:42;0.90;;;0.32;;
7783;SDS011;19359;51.402;6.778;2022-11-15T11:33:16;2.20;;;0.28;;
7783;SDS011;19359;51.402;6.778;2022-11-15T11:35:50;1.17;;;0.40;;
7783;SDS011;19359;51.402;6.778;2022-11-15T11:38:39;0.30;;;0.30;;
7783;SDS011;19359;51.402;6.778;2022-11-15T11:41:18;1.27;;;0.30;;
7783;SDS011;19359;51.402;6.778;2022-11-15T11:43:56;3.10;;;0.43;;
7783;SDS011;19359;51.402;6.778;2022-11-15T11:46:36;2.45;;;0.63;;
7783;SDS011;19359;51.402;6.778;2022-11-15T11:49:15;3.13;;;0.50;;
7783;SDS011;19359;51.402;6.778;2022-11-15T11:51:47;1.13;;;0.38;;
7783;SDS011;19359;51.402;6.778;2022-11-15T11:54:20;3.15;;;0.40;;
7783;SDS011;19359;51.402;6.778;2022-11-15T11:56:51;0.60;;;0.20;;
7783;SDS011;19359;51.402;6.778;2022-11-15T11:59:25;7.50;;;0.40;;
7783;SDS011;19359;51.402;6.778;2022-11-15T12:02:09;0.28;;;0.20;;
7783;SDS011;19359;51.402;6.778;2022-11-15T12:04:41;0.40;;;0.40;;
7783;SDS011;19359;51.402;6.778;2022-11-15T12:07:13;2.95;;;0.20;;
7783;SDS011;19359;51.402;6.778;2022-11-15T12:09:43;0.40;;;0.38;;
7783;SDS011;19359;51.402;6.778;2022-11-15T12:12:17;1.90;;;0.30;;
7783;SDS011;19359;51.402;6.778;2022-11-15T12:14:51;2.08;;;0.38;;
7783;SDS011;19359;51.402;6.778;2022-11-15T12:17:21;2.17;;;0.30;;
7783;SDS011;19359;51.402;6.778;2022-11-15T12:19:50;1.88;;;0.40;;
7783;SDS011;19359;51.402;6.778;2022-11-15T12:22:20;2.40;;;0.30;;
7783;SDS011;19359;51.402;6.778;2022-11-15T12:24:51;0.30;;;0.30;;
7783;SDS011;19359;51.402;6.778;2022-11-15T12:27:22;1.08;;;0.63;;
7783;SDS011;19359;51.402;6.778;2022-11-15T12:29:56;0.88;;;0.20;;
7783;SDS011;19359;51.402;6.778;2022-11-15T12:32:28;0.40;;;0.20;;
7783;SDS011;19359;51.402;6.778;2022-11-15T12:34:58;0.85;;;0.25;;
7783;SDS011;19359;51.402;6.778;2022-11-15T12:37:44;1.98;;;0.40;;
7783;SDS011;19359;51.402;6.778;2022-11-15T12:40:19;0.28;;;0.28;;
7783;SDS011;19359;51.402;6.778;2022-11-15T12:42:57;0.85;;;0.40;;
7783;SDS011;19359;51.402;6.778;2022-11-15T12:45:27;0.55;;;0.20;;
7783;SDS011;19359;51.402;6.778;2022-11-15T12:47:56;0.95;;;0.20;;
7783;SDS011;19359;51.402;6.778;2022-11-15T12:50:57;1.17;;;0.40;;
7783;SDS011;19359;51.402;6.778;2022-11-15T12:53:28;0.73;;;0.43;;
7783;SDS011;19359;51.402;6.778;2022-11-15T12:56:09;0.20;;;0.20;;
7783;SDS011;19359;51.402;6.778;2022-11-15T12:58:45;1.25;;;0.30;;
7783;SDS011;19359;51.402;6.778;2022-11-15T13:04:22;2.15;;;1.05;;
7783;SDS011;19359;51.402;6.778;2022-11-15T13:06:52;0.85;;;0.30;;
7783;SDS011;19359;51.402;6.778;2022-11-15T13:15:33;2.95;;;0.50;;
7783;SDS011;19359;51.402;6.778;2022-11-15T13:20:58;1.65;;;0.30;;
7783;SDS011;19359;51.402;6.778;2022-11-15T13:23:26;4.95;;;0.30;;
7783;SDS011;19359;51.402;6.778;2022-11-15T13:26:05;1.27;;;0.47;;
7783;SDS011;19359;51.402;6.778;2022-11-15T13:28:37;0.52;;;0.20;;
7783;SDS011;19359;51.402;6.778;2022-11-15T13:31:18;1.35;;;0.30;;
7783;SDS011;19359;51.402;6.778;2022-11-15T13:33:50;8.48;;;0.52;;
7783;SDS011;19359;51.402;6.778;2022-11-15T13:36:19;2.50;;;0.32;;
7783;SDS011;19359;51.402;6.778;2022-11-15T13:38:53;1.98;;;0.35;;
7783;SDS011;19359;51.402;6.778;2022-11-15T13:41:24;2.60;;;0.32;;
7783;SDS011;19359;51.402;6.778;2022-11-15T13:43:53;3.10;;;0.30;;
7783;SDS011;19359;51.402;6.778;2022-11-15T13:46:21;2.45;;;0.30;;
7783;SDS011;19359;51.402;6.778;2022-11-15T13:48:53;0.20;;;0.20;;
7783;SDS011;19359;51.402;6.778;2022-11-15T13:51:22;0.73;;;0.28;;
7783;SDS011;19359;51.402;6.778;2022-11-15T13:53:54;0.50;;;0.50;;
7783;SDS011;19359;51.402;6.778;2022-11-15T13:56:25;0.63;;;0.40;;
7783;SDS011;19359;51.402;6.778;2022-11-15T13:58:54;3.35;;;0.63;;
7783;SDS011;19359;51.402;6.778;2022-11-15T14:01:21;1.13;;;0.40;;
7783;SDS011;19359;51.402;6.778;2022-11-15T14:03:53;4.18;;;0.40;;
7783;SDS011;19359;51.402;6.778;2022-11-15T14:06:22;4.57;;;0.30;;
7783;SDS011;19359;51.402;6.778;2022-11-15T14:09:03;0.82;;;0.82;;
7783;SDS011;19359;51.402;6.778;2022-11-15T14:11:59;0.25;;;0.25;;
7783;SDS011;19359;51.402;6.778;2022-11-15T14:14:27;1.70;;;0.30;;
7783;SDS011;19359;51.402;6.778;2022-11-15T14:16:55;1.08;;;0.40;;
7783;SDS011;19359;51.402;6.778;2022-11-15T14:19:34;3.05;;;0.40;;
7783;SDS011;19359;51.402;6.778;2022-11-15T14:22:16;0.35;;;0.20;;
7783;SDS011;19359;51.402;6.778;2022-11-15T14:24:46;3.58;;;0.82;;
7783;SDS011;19359;51.402;6.778;2022-11-15T14:27:31;1.23;;;0.40;;
7783;SDS011;19359;51.402;6.778;2022-11-15T14:29:58;0.75;;;0.28;;
7783;SDS011;19359;51.402;6.778;2022-11-15T14:32:26;3.83;;;0.30;;
7783;SDS011;19359;51.402;6.778;2022-11-15T14:34:55;3.72;;;0.60;;
7783;SDS011;19359;51.402;6.778;2022-11-15T14:37:24;3.40;;;0.38;;
7783;SDS011;19359;51.402;6.778;2022-11-15T14:39:52;3.88;;;0.98;;
7783;SDS011;19359;51.402;6.778;2022-11-15T14:42:20;2.13;;;0.60;;
7783;SDS011;19359;51.402;6.778;2022-11-15T14:44:49;2.15;;;0.50;;
7783;SDS011;19359;51.402;6.778;2022-11-15T14:47:16;0.88;;;0.50;;
7783;SDS011;19359;51.402;6.778;2022-11-15T14:49:43;0.57;;;0.30;;
7783;SDS011;19359;51.402;6.778;2022-11-15T14:54:49;1.45;;;0.70;;
7783;SDS011;19359;51.402;6.778;2022-11-15T14:57:16;0.43;;;0.30;;
7783;SDS011;19359;51.402;6.778;2022-11-15T14:59:42;0.68;;;0.60;;
7783;SDS011;19359;51.402;6.778;2022-11-15T15:02:12;1.27;;;0.45;;
7783;SDS011;19359;51.402;6.778;2022-11-15T15:04:42;0.65;;;0.60;;
7783;SDS011;19359;51.402;6.778;2022-11-15T15:07:09;1.77;;;0.70;;
7783;SDS011;19359;51.402;6.778;2022-11-15T15:09:36;1.08;;;0.77;;
7783;SDS011;19359;51.402;6.778;2022-11-15T15:12:02;0.50;;;0.50;;
7783;SDS011;19359;51.402;6.778;2022-11-15T15:14:29;0.77;;;0.77;;
7783;SDS011;19359;51.402;6.778;2022-11-15T15:16:56;0.93;;;0.90;;
7783;SDS011;19359;51.402;6.778;2022-11-15T15:19:24;0.93;;;0.93;;
7783;SDS011;19359;51.402;6.778;2022-11-15T15:21:51;3.33;;;1.33;;
7783;SDS011;19359;51.402;6.778;2022-11-15T15:24:17;2.85;;;2.55;;
7783;SDS011;19359;51.402;6.778;2022-11-15T15:26:44;1.92;;;1.70;;
7783;SDS011;19359;51.402;6.778;2022-11-15T15:29:11;3.97;;;1.50;;
7783;SDS011;19359;51.402;6.778;2022-11-15T15:31:37;3.92;;;1.90;;
7783;SDS011;19359;51.402;6.778;2022-11-15T15:34:04;1.30;;;1.20;;
7783;SDS011;19359;51.402;6.778;2022-11-15T15:36:32;5.40;;;3.42;;
7783;SDS011;19359;51.402;6.778;2022-11-15T15:38:59;2.17;;;2.03;;